createdAt,value
2022-10-02T00:03:04.817Z,14.78
2022-10-02T00:05:41.253Z,14.57
2022-10-02T00:08:24.190Z,14.58
2022-10-02T00:11:23.594Z,14.67
2022-10-02T00:13:59.135Z,14.66
2022-10-02T00:17:03.314Z,14.62
2022-10-02T00:19:30.650Z,14.68
2022-10-02T00:22:20.364Z,14.69
2022-10-02T00:24:54.477Z,14.75
2022-10-02T00:27:58.803Z,14.69
2022-10-02T00:30:25.827Z,14.63
2022-10-02T00:33:24.035Z,14.73
2022-10-02T00:36:39.502Z,14.72
2022-10-02T00:39:39.494Z,14.86
2022-10-02T00:42:50.371Z,14.66
2022-10-02T00:45:22.932Z,14.73
2022-10-02T00:48:07.869Z,14.71
2022-10-02T00:51:35.095Z,14.71
2022-10-02T00:54:10.831Z,14.72
2022-10-02T00:57:40.211Z,14.89
2022-10-02T01:00:18.894Z,14.77
2022-10-02T01:03:14.316Z,14.96
2022-10-02T01:05:41.654Z,14.79
2022-10-02T01:08:09.031Z,14.75
2022-10-02T01:10:38.155Z,14.75
2022-10-02T01:13:05.986Z,14.73
2022-10-02T01:15:42.533Z,14.56
2022-10-02T01:18:13.687Z,14.82
2022-10-02T01:20:53.608Z,14.58
2022-10-02T01:23:42.611Z,14.73
2022-10-02T01:26:09.685Z,14.69
2022-10-02T01:28:37.767Z,14.47
2022-10-02T01:31:10.909Z,14.44
2022-10-02T01:33:41.624Z,14.44
2022-10-02T01:36:11.246Z,14.39
2022-10-02T01:38:41.523Z,14.50
2022-10-02T01:41:11.475Z,14.40
2022-10-02T01:44:00.552Z,14.40
2022-10-02T01:46:59.516Z,14.40
2022-10-02T01:49:57.814Z,14.30
2022-10-02T01:52:46.712Z,14.30
2022-10-02T01:55:47.275Z,14.38
2022-10-02T01:58:50.355Z,14.32
2022-10-02T02:01:25.431Z,14.24
2022-10-02T02:04:30.337Z,14.15
2022-10-02T02:07:27.373Z,14.09
2022-10-02T02:10:17.763Z,14.03
2022-10-02T02:13:01.970Z,14.02
2022-10-02T02:15:40.262Z,14.03
2022-10-02T02:18:29.847Z,14.10
2022-10-02T02:21:04.424Z,14.05
2022-10-02T02:23:35.259Z,14.07
2022-10-02T02:26:12.486Z,14.13
2022-10-02T02:28:48.829Z,14.61
2022-10-02T02:31:21.594Z,14.65
2022-10-02T02:33:56.211Z,14.75
2022-10-02T02:36:30.902Z,14.81
2022-10-02T02:39:10.372Z,14.87
2022-10-02T02:42:01.534Z,14.60
2022-10-02T02:44:41.979Z,14.78
2022-10-02T02:47:22.596Z,14.80
2022-10-02T02:49:57.210Z,14.72
2022-10-02T02:52:41.629Z,14.92
2022-10-02T02:55:19.115Z,15.00
2022-10-02T02:58:05.616Z,14.79
2022-10-02T03:00:32.692Z,14.98
2022-10-02T03:03:00.612Z,14.75
2022-10-02T03:05:29.594Z,14.86
2022-10-02T03:08:03.204Z,14.85
2022-10-02T03:11:10.032Z,15.01
2022-10-02T03:14:07.860Z,14.91
2022-10-02T03:16:54.296Z,14.80
2022-10-02T03:19:48.147Z,14.95
2022-10-02T03:22:49.203Z,14.91
2022-10-02T03:25:33.226Z,14.85
2022-10-02T03:28:54.583Z,14.86
2022-10-02T03:31:23.203Z,14.95
2022-10-02T03:33:53.843Z,14.80
2022-10-02T03:36:24.419Z,14.89
2022-10-02T03:39:19.943Z,14.86
2022-10-02T03:41:42.318Z,14.99
2022-10-02T03:44:09.213Z,14.93
2022-10-02T03:46:36.488Z,15.02
2022-10-02T03:49:03.592Z,14.92
2022-10-02T03:51:30.936Z,14.98
2022-10-02T03:53:58.072Z,14.91
2022-10-02T03:56:39.370Z,14.89
2022-10-02T03:59:16.019Z,14.97
2022-10-02T04:01:50.858Z,14.97
2022-10-02T04:04:31.760Z,14.97
2022-10-02T04:07:04.849Z,14.97
2022-10-02T04:10:08.208Z,14.99
2022-10-02T04:12:40.403Z,14.99
2022-10-02T04:15:26.298Z,15.03
2022-10-02T04:18:06.279Z,14.91
2022-10-02T04:20:33.183Z,14.79
2022-10-02T04:23:28.220Z,14.78
2022-10-02T04:26:07.496Z,14.74
2022-10-02T04:28:50.699Z,14.75
2022-10-02T04:31:17.820Z,14.80
2022-10-02T04:33:44.856Z,14.87
2022-10-02T04:36:53.738Z,14.84
2022-10-02T04:39:27.408Z,14.68
2022-10-02T04:42:29.262Z,14.99
2022-10-02T04:45:17.789Z,14.82
2022-10-02T04:48:11.999Z,14.94
2022-10-02T04:51:23.507Z,14.79
2022-10-02T04:54:16.445Z,14.75
2022-10-02T04:57:10.902Z,14.88
2022-10-02T05:00:08.684Z,14.95
2022-10-02T05:03:13.101Z,14.76
2022-10-02T05:06:24.984Z,14.80
2022-10-02T05:09:08.961Z,14.78
2022-10-02T05:11:57.150Z,14.66
2022-10-02T05:14:39.010Z,14.65
2022-10-02T05:18:00.018Z,14.67
2022-10-02T05:21:03.492Z,14.78
2022-10-02T05:24:13.454Z,14.54
2022-10-02T05:27:20.664Z,14.62
2022-10-02T05:30:14.032Z,14.60
2022-10-02T05:33:33.103Z,14.54
2022-10-02T05:36:23.656Z,14.45
2022-10-02T05:39:08.355Z,14.40
2022-10-02T05:41:44.283Z,14.41
2022-10-02T05:44:27.396Z,14.44
2022-10-02T05:47:22.222Z,14.35
2022-10-02T05:49:55.446Z,14.37
2022-10-02T05:53:06.172Z,14.37
2022-10-02T05:55:49.918Z,14.39
2022-10-02T05:58:36.945Z,14.38
2022-10-02T06:01:15.389Z,14.46
2022-10-02T06:03:51.170Z,14.32
2022-10-02T06:06:33.583Z,14.48
2022-10-02T06:09:20.003Z,14.28
2022-10-02T06:12:02.878Z,14.45
2022-10-02T06:14:34.425Z,14.35
2022-10-02T06:17:26.992Z,14.41
2022-10-02T06:20:19.155Z,14.26
2022-10-02T06:23:14.135Z,14.35
2022-10-02T06:25:50.039Z,14.27
2022-10-02T06:28:25.467Z,14.34
2022-10-02T06:31:30.507Z,14.26
2022-10-02T06:33:58.147Z,14.33
2022-10-02T06:36:58.358Z,14.31
2022-10-02T06:39:49.347Z,14.43
2022-10-02T06:42:27.992Z,14.42
2022-10-02T06:45:53.310Z,14.44
2022-10-02T06:48:54.567Z,14.43
2022-10-02T06:51:57.562Z,14.50
2022-10-02T06:54:46.115Z,14.46
2022-10-02T06:57:25.939Z,14.41
2022-10-02T07:00:12.329Z,14.42
2022-10-02T07:02:51.590Z,14.38
2022-10-02T07:05:53.339Z,14.62
2022-10-02T07:08:46.734Z,14.46
2022-10-02T07:12:04.970Z,14.44
2022-10-02T07:15:00.830Z,14.43
2022-10-02T07:18:08.871Z,14.39
2022-10-02T07:21:05.351Z,14.58
2022-10-02T07:24:07.878Z,14.40
2022-10-02T07:26:48.315Z,14.37
2022-10-02T07:29:42.864Z,14.42
2022-10-02T07:32:40.414Z,14.65
2022-10-02T07:35:31.165Z,14.68
2022-10-02T07:38:44.703Z,14.59
2022-10-02T07:41:52.117Z,14.56
2022-10-02T07:44:43.867Z,14.59
2022-10-02T07:47:41.338Z,14.57
2022-10-02T07:50:25.129Z,14.50
2022-10-02T07:53:02.114Z,14.62
2022-10-02T07:55:29.036Z,14.64
2022-10-02T07:58:21.647Z,14.72
2022-10-02T08:01:02.349Z,14.72
2022-10-02T08:04:01.273Z,14.73
2022-10-02T08:06:29.038Z,14.72
2022-10-02T08:09:39.072Z,14.76
2022-10-02T08:12:37.759Z,14.69
2022-10-02T08:15:11.427Z,14.70
2022-10-02T08:17:58.775Z,14.76
2022-10-02T08:20:44.403Z,14.73
2022-10-02T08:23:46.059Z,14.66
2022-10-02T08:26:30.658Z,14.63
2022-10-02T08:29:09.561Z,14.61
2022-10-02T08:31:36.575Z,14.70
2022-10-02T08:34:20.915Z,14.85
2022-10-02T08:36:47.867Z,14.90
2022-10-02T08:39:46.530Z,14.85
2022-10-02T08:42:45.467Z,14.80
2022-10-02T08:46:04.630Z,14.67
2022-10-02T08:48:59.078Z,14.87
2022-10-02T08:51:57.859Z,14.84
2022-10-02T08:55:10.657Z,14.76
2022-10-02T08:58:03.562Z,14.78
2022-10-02T09:01:07.188Z,15.05
2022-10-02T09:04:13.003Z,14.97
2022-10-02T09:07:04.737Z,15.00
2022-10-02T09:09:46.598Z,14.92
2022-10-02T09:12:44.630Z,15.11
2022-10-02T09:15:19.308Z,14.81
2022-10-02T09:18:14.027Z,14.80
2022-10-02T09:20:50.435Z,15.05
2022-10-02T09:23:26.193Z,15.04
2022-10-02T09:26:21.486Z,14.99
2022-10-02T09:29:15.755Z,14.97
2022-10-02T09:32:17.682Z,14.91
2022-10-02T09:35:40.794Z,15.10
2022-10-02T09:38:35.659Z,15.04
2022-10-02T09:41:30.618Z,15.00
2022-10-02T09:44:28.286Z,15.10
2022-10-02T09:47:14.958Z,15.05
2022-10-02T09:50:04.911Z,15.06
2022-10-02T09:52:45.306Z,15.19
2022-10-02T09:55:39.142Z,15.21
2022-10-02T09:58:36.713Z,15.17
2022-10-02T10:02:13.295Z,15.40
2022-10-02T10:05:13.158Z,15.12
2022-10-02T10:07:58.067Z,15.21
2022-10-02T10:10:31.120Z,15.32
2022-10-02T10:13:55.996Z,15.48
2022-10-02T10:16:48.431Z,15.41
2022-10-02T10:19:54.055Z,15.37
2022-10-02T10:23:25.023Z,15.56
2022-10-02T10:26:16.638Z,15.44
2022-10-02T10:29:16.965Z,15.32
2022-10-02T10:32:17.543Z,15.34
2022-10-02T10:34:47.263Z,15.30
2022-10-02T10:38:14.765Z,15.44
2022-10-02T10:41:13.052Z,15.57
2022-10-02T10:44:11.207Z,15.65
2022-10-02T10:46:59.490Z,15.61
2022-10-02T10:49:41.464Z,15.49
2022-10-02T10:52:17.164Z,15.61
2022-10-02T10:55:14.955Z,15.93
2022-10-02T10:58:33.843Z,15.78
2022-10-02T11:01:39.725Z,15.73
2022-10-02T11:04:19.079Z,15.90
2022-10-02T11:07:35.055Z,15.93
2022-10-02T11:10:23.528Z,15.94
2022-10-02T11:13:43.935Z,15.98
2022-10-02T11:16:41.164Z,16.06
2022-10-02T11:19:51.220Z,16.06
2022-10-02T11:22:22.212Z,16.19
2022-10-02T11:24:55.248Z,16.36
2022-10-02T11:28:26.378Z,16.49
2022-10-02T11:31:53.846Z,16.72
2022-10-02T11:34:44.941Z,16.60
2022-10-02T11:37:43.977Z,16.68
2022-10-02T11:40:44.955Z,16.71
2022-10-02T11:43:32.937Z,16.79
2022-10-02T11:46:52.214Z,16.76
2022-10-02T11:50:03.781Z,16.76
2022-10-02T11:52:48.715Z,16.84
2022-10-02T11:55:57.010Z,16.80
2022-10-02T11:58:51.314Z,16.75
2022-10-02T12:01:52.313Z,16.77
2022-10-02T12:05:05.954Z,16.57
2022-10-02T12:07:44.216Z,16.42
2022-10-02T12:10:28.585Z,16.45
2022-10-02T12:13:36.565Z,16.43
2022-10-02T12:16:34.076Z,16.25
2022-10-02T12:20:03.108Z,16.21
2022-10-02T12:23:29.697Z,16.25
2022-10-02T12:26:22.576Z,16.34
2022-10-02T12:29:41.115Z,16.32
2022-10-02T12:32:36.489Z,16.33
2022-10-02T12:35:20.828Z,16.33
2022-10-02T12:38:18.386Z,16.41
2022-10-02T12:41:08.665Z,16.40
2022-10-02T12:44:22.066Z,16.56
2022-10-02T12:47:51.153Z,16.49
2022-10-02T12:50:42.809Z,16.61
2022-10-02T12:53:29.155Z,16.58
2022-10-02T12:56:36.213Z,16.52
2022-10-02T12:59:49.546Z,16.48
2022-10-02T13:03:01.229Z,16.41
2022-10-02T13:05:58.137Z,16.27
2022-10-02T13:08:49.542Z,16.23
2022-10-02T13:11:55.854Z,16.14
2022-10-02T13:14:33.148Z,16.11
2022-10-02T13:17:52.024Z,16.24
2022-10-02T13:20:55.943Z,16.15
2022-10-02T13:24:01.003Z,16.08
2022-10-02T13:27:08.046Z,16.27
2022-10-02T13:30:16.252Z,16.23
2022-10-02T13:33:26.767Z,16.33
2022-10-02T13:36:08.248Z,16.31
2022-10-02T13:39:03.409Z,16.30
2022-10-02T13:41:47.797Z,16.22
2022-10-02T13:44:58.691Z,16.27
2022-10-02T13:47:47.601Z,16.21
2022-10-02T13:50:26.611Z,16.11
2022-10-02T13:53:11.649Z,16.09
2022-10-02T13:56:17.443Z,16.28
2022-10-02T13:59:10.773Z,16.33
2022-10-02T14:01:53.146Z,16.18
2022-10-02T14:04:50.388Z,15.98
2022-10-02T14:07:51.239Z,15.90
2022-10-02T14:10:33.463Z,15.48
2022-10-02T14:13:28.651Z,15.53
2022-10-02T14:16:23.958Z,15.41
2022-10-02T14:19:13.705Z,15.22
2022-10-02T14:22:14.171Z,15.10
2022-10-02T14:25:04.285Z,15.12
2022-10-02T14:28:03.376Z,15.21
2022-10-02T14:31:07.504Z,15.11
2022-10-02T14:33:35.009Z,15.12
2022-10-02T14:36:25.378Z,15.31
2022-10-02T14:39:32.255Z,15.52
2022-10-02T14:42:30.899Z,15.63
2022-10-02T14:45:21.271Z,15.70
2022-10-02T14:48:21.768Z,15.42
2022-10-02T14:51:18.545Z,15.31
2022-10-02T14:54:16.395Z,15.18
2022-10-02T14:56:54.751Z,14.98
2022-10-02T14:59:41.697Z,14.93
2022-10-02T15:02:11.225Z,14.93
2022-10-02T15:05:04.650Z,14.99
2022-10-02T15:07:34.807Z,15.10
2022-10-02T15:10:22.962Z,15.09
2022-10-02T15:13:38.669Z,15.15
2022-10-02T15:16:39.115Z,15.27
2022-10-02T15:19:11.620Z,15.34
2022-10-02T15:22:00.746Z,15.35
2022-10-02T15:24:45.479Z,15.33
2022-10-02T15:27:39.467Z,15.65
2022-10-02T15:30:23.173Z,15.76
2022-10-02T15:33:25.972Z,15.47
2022-10-02T15:36:24.052Z,15.38
2022-10-02T15:39:00.237Z,15.49
2022-10-02T15:41:48.826Z,15.61
2022-10-02T15:45:02.584Z,15.41
2022-10-02T15:47:48.575Z,15.43
2022-10-02T15:50:38.846Z,15.39
2022-10-02T15:53:46.830Z,15.40
2022-10-02T15:57:08.639Z,15.35
2022-10-02T16:00:09.465Z,15.45
2022-10-02T16:02:47.420Z,15.34
2022-10-02T16:05:29.421Z,15.47
2022-10-02T16:08:46.032Z,15.54
2022-10-02T16:11:27.939Z,15.37
2022-10-02T16:14:02.045Z,15.21
2022-10-02T16:17:29.978Z,15.24
2022-10-02T16:20:22.665Z,15.13
2022-10-02T16:23:25.163Z,15.25
2022-10-02T16:26:13.897Z,15.48
2022-10-02T16:29:26.553Z,15.43
2022-10-02T16:32:19.365Z,15.39
2022-10-02T16:35:44.067Z,15.24
2022-10-02T16:38:50.452Z,15.22
2022-10-02T16:41:40.136Z,15.14
2022-10-02T16:44:23.504Z,15.15
2022-10-02T16:47:27.407Z,15.21
2022-10-02T16:50:33.335Z,15.17
2022-10-02T16:53:10.503Z,15.10
2022-10-02T16:55:45.350Z,15.14
2022-10-02T16:58:29.738Z,15.10
2022-10-02T17:01:02.267Z,15.36
2022-10-02T17:03:44.495Z,15.30
2022-10-02T17:06:32.422Z,15.02
2022-10-02T17:09:19.147Z,14.98
2022-10-02T17:11:51.745Z,15.08
2022-10-02T17:14:31.111Z,14.97
2022-10-02T17:18:08.755Z,15.34
2022-10-02T17:20:53.593Z,15.36
2022-10-02T17:23:35.666Z,15.40
2022-10-02T17:26:28.406Z,15.32
2022-10-02T17:29:07.320Z,15.22
2022-10-02T17:31:56.001Z,14.82
2022-10-02T17:34:31.691Z,14.98
2022-10-02T17:37:13.919Z,15.11
2022-10-02T17:40:01.512Z,15.06
2022-10-02T17:43:13.391Z,14.90
2022-10-02T17:46:23.894Z,14.70
2022-10-02T17:49:17.590Z,14.82
2022-10-02T17:52:43.943Z,14.76
2022-10-02T17:56:16.118Z,14.75
2022-10-02T17:58:55.890Z,14.88
2022-10-02T18:01:31.551Z,14.79
2022-10-02T18:04:19.695Z,14.69
2022-10-02T18:07:30.524Z,14.65
2022-10-02T18:10:32.208Z,14.59
2022-10-02T18:13:31.824Z,14.61
2022-10-02T18:16:23.319Z,14.67
2022-10-02T18:19:24.970Z,14.61
2022-10-02T18:22:32.138Z,14.55
2022-10-02T18:25:27.473Z,14.57
2022-10-02T18:28:11.379Z,14.60
2022-10-02T18:31:55.433Z,14.54
2022-10-02T18:35:07.442Z,14.86
2022-10-02T18:37:57.519Z,14.77
2022-10-02T18:40:30.427Z,14.71
2022-10-02T18:43:38.848Z,14.46
2022-10-02T18:46:49.403Z,14.22
2022-10-02T18:50:07.662Z,14.12
2022-10-02T18:52:55.582Z,14.26
2022-10-02T18:56:02.823Z,14.40
2022-10-02T18:58:41.829Z,14.51
2022-10-02T19:01:30.880Z,14.50
2022-10-02T19:04:28.571Z,14.32
2022-10-02T19:07:11.007Z,14.06
2022-10-02T19:09:38.072Z,13.91
2022-10-02T19:12:25.360Z,14.05
2022-10-02T19:14:55.829Z,13.94
2022-10-02T19:17:25.976Z,13.93
2022-10-02T19:19:54.227Z,13.98
2022-10-02T19:22:38.422Z,13.90
2022-10-02T19:25:16.491Z,14.11
2022-10-02T19:27:50.257Z,14.04
2022-10-02T19:30:30.460Z,14.04
2022-10-02T19:33:02.450Z,14.01
2022-10-02T19:35:33.562Z,13.95
2022-10-02T19:38:27.890Z,13.89
2022-10-02T19:40:57.248Z,13.80
2022-10-02T19:43:31.108Z,13.75
2022-10-02T19:46:04.052Z,13.81
2022-10-02T19:48:32.665Z,13.89
2022-10-02T19:51:19.109Z,13.93
2022-10-02T19:53:55.244Z,13.91
2022-10-02T19:56:41.141Z,13.68
2022-10-02T19:59:25.472Z,13.61
2022-10-02T20:01:55.178Z,13.61
2022-10-02T20:04:28.955Z,13.47
2022-10-02T20:07:00.629Z,13.40
2022-10-02T20:09:36.622Z,13.51
2022-10-02T20:12:47.632Z,13.41
2022-10-02T20:15:15.890Z,13.49
2022-10-02T20:17:42.969Z,13.50
2022-10-02T20:20:16.705Z,13.41
2022-10-02T20:23:01.589Z,13.43
2022-10-02T20:25:42.097Z,13.21
2022-10-02T20:28:23.102Z,13.35
2022-10-02T20:31:04.682Z,13.35
2022-10-02T20:33:37.360Z,13.21
2022-10-02T20:36:29.186Z,13.17
2022-10-02T20:39:11.786Z,13.11
2022-10-02T20:42:09.872Z,13.23
2022-10-02T20:44:37.564Z,12.89
2022-10-02T20:47:35.384Z,12.52
2022-10-02T20:50:31.173Z,12.90
2022-10-02T20:53:53.282Z,12.86
2022-10-02T20:56:41.869Z,12.87
2022-10-02T20:59:48.000Z,12.96
2022-10-02T21:02:29.802Z,13.05
2022-10-02T21:05:30.467Z,13.00
2022-10-02T21:08:27.659Z,12.87
2022-10-02T21:11:15.660Z,12.88
2022-10-02T21:14:22.950Z,12.81
2022-10-02T21:17:41.875Z,12.76
2022-10-02T21:20:27.751Z,12.78
2022-10-02T21:23:32.155Z,12.74
2022-10-02T21:26:30.126Z,12.64
2022-10-02T21:29:27.879Z,12.55
2022-10-02T21:32:22.950Z,12.60
2022-10-02T21:35:10.160Z,12.69
2022-10-02T21:37:56.249Z,12.71
2022-10-02T21:40:57.360Z,12.62
2022-10-02T21:43:56.050Z,12.58
2022-10-02T21:46:59.089Z,12.58
2022-10-02T21:50:05.975Z,12.34
2022-10-02T21:53:18.958Z,12.22
2022-10-02T21:56:00.102Z,11.99
2022-10-02T21:58:51.775Z,11.87
2022-10-02T22:01:36.351Z,11.80
2022-10-02T22:04:28.297Z,11.82
2022-10-02T22:07:22.411Z,12.05
2022-10-02T22:10:30.215Z,11.93
2022-10-02T22:13:21.580Z,11.85
2022-10-02T22:16:09.804Z,11.91
2022-10-02T22:18:50.854Z,11.84
2022-10-02T22:21:45.404Z,11.83
2022-10-02T22:24:53.810Z,11.75
2022-10-02T22:27:29.499Z,11.72
2022-10-02T22:29:57.414Z,11.79
2022-10-02T22:33:01.683Z,11.79
2022-10-02T22:36:04.973Z,11.78
2022-10-02T22:38:52.993Z,11.83
2022-10-02T22:41:33.970Z,11.88
2022-10-02T22:44:09.368Z,11.79
2022-10-02T22:46:50.382Z,11.81
2022-10-02T22:49:34.986Z,11.65
2022-10-02T22:52:42.372Z,11.44
2022-10-02T22:55:34.508Z,11.25
2022-10-02T22:58:33.384Z,10.69
2022-10-02T23:01:17.023Z,10.39
2022-10-02T23:04:26.031Z,10.45
2022-10-02T23:07:02.227Z,10.60
2022-10-02T23:09:59.496Z,11.08
2022-10-02T23:12:40.595Z,11.21
2022-10-02T23:15:42.548Z,11.27
2022-10-02T23:18:50.484Z,11.17
2022-10-02T23:21:45.638Z,11.32
2022-10-02T23:24:13.079Z,11.47
2022-10-02T23:26:57.049Z,11.17
2022-10-02T23:30:10.327Z,10.95
2022-10-02T23:32:55.715Z,10.92
2022-10-02T23:35:49.223Z,10.78
2022-10-02T23:39:05.235Z,10.51
2022-10-02T23:42:02.078Z,10.45
2022-10-02T23:44:43.117Z,10.53
2022-10-02T23:47:46.895Z,10.41
2022-10-02T23:51:09.627Z,10.37
2022-10-02T23:54:57.608Z,10.26
2022-10-02T23:58:04.683Z,10.32
